M/V Cooperative Enterprise — WDB8316 — position and weather

sailwx.info

Track history (hours):
 
Tides and Currents Weather Stations Pressure Air Temp Water Temp Dewpoint Dewpoint Depression Visibility Wind Speed Wind Dir Waves Ship Positions

M/V Cooperative Enterprise

Owner: American RIver Transportation Co., Saint Louis, MO. More information available from US FCC via Universal Licensing System and Coast Guard Vessel Documentation Center.

Last reported at 2018-Apr-18 13:05 UTC. Time now 2018-Apr-19 23:25 UTC.
Position N 29°59' W 090°49'.

Length 61 m; draft 3.2 m.

Type: Towing. MMSI: 366956790.

Date/timePositionNaut miles runAvg speedWind from/ knotsBaromVisibWave heightAir tempDewpointWater temp
2018-Apr-18 13:05N 29°59' W 090°49'16 3.6
2018-Apr-18 08:41N 30°03' W 090°32'10 3.2
2018-Apr-18 05:32N 29°57' W 090°23'1 0.0
2018-Apr-16 04:59N 29°57' W 090°23'1 1.9
2018-Apr-16 04:27N 29°57' W 090°22'  
2018-Apr-13 23:53N 31°57' W 091°11'6 8.3
2018-Apr-13 23:10N 32°00' W 091°05'210.0
2018-Apr-13 23:00N 32°02' W 091°04'4 7.8
2018-Apr-13 22:30N 32°05' W 091°05'2 4.9
2018-Apr-13 22:00N 32°08' W 091°04'4 7.8
2018-Apr-13 21:30N 32°09' W 091°00'510.0
2018-Apr-13 21:00N 32°14' W 090°59'5 9.4
2018-Apr-13 20:30N 32°18' W 090°55'3 6.0
2018-Apr-13 20:00N 32°21' W 090°56'4 7.3
2018-Apr-13 19:30N 32°23' W 090°60'4 7.8
2018-Apr-13 19:00N 32°26' W 091°02'5 9.8
2018-Apr-13 18:30N 32°29' W 091°07'5 9.2
2018-Apr-13 18:00N 32°34' W 091°06'5 9.6
2018-Apr-13 17:30N 32°38' W 091°09'7 8.9
2018-Apr-13 16:42N 32°43' W 091°03'17 6.5
2018-Apr-13 14:10N 32°59' W 091°10'  
2018-Apr-11 00:44N 38°32' W 090°16'5 7.9
2018-Apr-11 00:06N 38°36' W 090°12'0 4.4
2018-Apr-11 00:00N 38°36' W 090°12'4 0.3
2018-Apr-10 13:01N 38°33' W 090°15'0 3.1
2018-Apr-10 12:52N 38°33' W 090°15'1 3.1
2018-Apr-10 12:29N 38°32' W 090°16'  
Track history (hours):
 
Tides and Currents Weather Stations Pressure Air Temp Water Temp Dewpoint Dewpoint Depression Visibility Wind Speed Wind Dir Waves Ship Positions

M/V Cooperative Enterprise

Owner: American RIver Transportation Co., Saint Louis, MO. More information available from US FCC via Universal Licensing System and Coast Guard Vessel Documentation Center.

Last reported at 2018-Apr-18 13:05 UTC. Time now 2018-Apr-19 23:25 UTC.
Position N 29°59' W 090°49'.

Length 61 m; draft 3.2 m.

Type: Towing. MMSI: 366956790.

Date/timePositionNaut miles runAvg speedWind from/ knotsBaromVisibWave heightAir tempDewpointWater temp
2018-Apr-18 13:05N 29°59' W 090°49'16 3.6
2018-Apr-18 08:41N 30°03' W 090°32'10 3.2
2018-Apr-18 05:32N 29°57' W 090°23'1 0.0
2018-Apr-16 04:59N 29°57' W 090°23'1 1.9
2018-Apr-16 04:27N 29°57' W 090°22'  
2018-Apr-13 23:53N 31°57' W 091°11'6 8.3
2018-Apr-13 23:10N 32°00' W 091°05'210.0
2018-Apr-13 23:00N 32°02' W 091°04'4 7.8
2018-Apr-13 22:30N 32°05' W 091°05'2 4.9
2018-Apr-13 22:00N 32°08' W 091°04'4 7.8
2018-Apr-13 21:30N 32°09' W 091°00'510.0
2018-Apr-13 21:00N 32°14' W 090°59'5 9.4
2018-Apr-13 20:30N 32°18' W 090°55'3 6.0
2018-Apr-13 20:00N 32°21' W 090°56'4 7.3
2018-Apr-13 19:30N 32°23' W 090°60'4 7.8
2018-Apr-13 19:00N 32°26' W 091°02'5 9.8
2018-Apr-13 18:30N 32°29' W 091°07'5 9.2
2018-Apr-13 18:00N 32°34' W 091°06'5 9.6
2018-Apr-13 17:30N 32°38' W 091°09'7 8.9
2018-Apr-13 16:42N 32°43' W 091°03'17 6.5
2018-Apr-13 14:10N 32°59' W 091°10'  
2018-Apr-11 00:44N 38°32' W 090°16'5 7.9
2018-Apr-11 00:06N 38°36' W 090°12'0 4.4
2018-Apr-11 00:00N 38°36' W 090°12'4 0.3
2018-Apr-10 13:01N 38°33' W 090°15'0 3.1
2018-Apr-10 12:52N 38°33' W 090°15'1 3.1
2018-Apr-10 12:29N 38°32' W 090°16'  

Dump ship's entire track history